createdAt,value
2022-12-15T00:00:19.466Z,90.53
2022-12-15T00:03:04.986Z,93.40
2022-12-15T00:05:50.695Z,87.40
2022-12-15T00:08:35.930Z,66.70
2022-12-15T00:11:21.826Z,86.43
2022-12-15T00:14:07.092Z,91.15
2022-12-15T00:16:52.830Z,91.57
2022-12-15T00:19:37.953Z,95.57
2022-12-15T00:22:25.000Z,100.93
2022-12-15T00:25:10.298Z,89.10
2022-12-15T00:27:55.738Z,93.70
2022-12-15T00:30:41.019Z,86.97
2022-12-15T00:33:29.768Z,88.30
2022-12-15T00:36:17.803Z,88.30
2022-12-15T00:38:45.783Z,93.68
2022-12-15T00:41:16.200Z,95.35
2022-12-15T00:43:43.998Z,93.63
2022-12-15T00:46:29.368Z,85.00
2022-12-15T00:48:57.457Z,88.15
2022-12-15T00:51:43.397Z,90.47
2022-12-15T00:54:29.512Z,94.55
2022-12-15T00:57:15.472Z,89.32
2022-12-15T01:00:01.167Z,99.53
2022-12-15T01:02:46.785Z,89.10
2022-12-15T01:05:32.810Z,104.20
2022-12-15T01:08:18.959Z,91.78
2022-12-15T01:11:04.998Z,99.07
2022-12-15T01:13:50.715Z,90.95
2022-12-15T01:16:36.356Z,101.18
2022-12-15T01:19:22.534Z,99.05
2022-12-15T01:21:49.799Z,92.93
2022-12-15T01:24:17.114Z,101.43
2022-12-15T01:26:44.029Z,101.00
2022-12-15T01:29:11.087Z,107.22
2022-12-15T01:31:38.180Z,98.43
2022-12-15T01:34:05.687Z,103.63
2022-12-15T01:36:32.847Z,104.68
2022-12-15T01:38:59.750Z,94.28
2022-12-15T01:41:27.347Z,98.70
2022-12-15T01:43:54.589Z,103.40
2022-12-15T01:46:23.344Z,102.60
2022-12-15T01:49:27.008Z,99.38
2022-12-15T01:52:03.089Z,107.72
2022-12-15T01:54:43.341Z,96.97
2022-12-15T01:57:18.902Z,99.55
2022-12-15T01:59:54.518Z,99.10
2022-12-15T02:02:27.016Z,100.45
2022-12-15T02:04:57.034Z,102.50
2022-12-15T02:07:24.492Z,97.63
2022-12-15T02:09:55.456Z,103.90
2022-12-15T02:12:55.825Z,98.85
2022-12-15T02:15:44.183Z,100.72
2022-12-15T02:18:52.406Z,107.38
2022-12-15T02:21:40.716Z,109.07
2022-12-15T02:24:55.130Z,101.15
2022-12-15T02:27:50.024Z,106.30
2022-12-15T02:30:41.298Z,99.70
2022-12-15T02:33:25.075Z,106.38
2022-12-15T02:36:28.574Z,107.25
2022-12-15T02:38:55.557Z,105.75
2022-12-15T02:41:42.111Z,98.82
2022-12-15T02:46:47.865Z,84.05
2022-12-15T02:49:32.549Z,87.60
2022-12-15T02:52:13.295Z,90.97
2022-12-15T02:55:34.208Z,87.18
2022-12-15T02:58:20.394Z,91.80
2022-12-15T03:00:58.469Z,85.65
2022-12-15T03:03:29.683Z,91.95
2022-12-15T03:05:57.829Z,85.18
2022-12-15T03:08:24.790Z,88.95
2022-12-15T03:10:54.782Z,88.13
2022-12-15T03:13:23.474Z,90.10
2022-12-15T03:15:51.466Z,85.10
2022-12-15T03:18:18.790Z,87.07
2022-12-15T03:20:45.852Z,92.15
2022-12-15T03:23:12.877Z,77.70
2022-12-15T03:25:39.783Z,79.53
2022-12-15T03:28:06.760Z,84.18
2022-12-15T03:30:33.846Z,89.80
2022-12-15T03:33:00.768Z,79.57
2022-12-15T03:35:27.921Z,89.40
2022-12-15T03:37:54.961Z,84.43
2022-12-15T03:40:21.915Z,75.47
2022-12-15T03:42:48.872Z,82.82
2022-12-15T03:45:28.224Z,76.10
2022-12-15T03:47:56.878Z,78.80
2022-12-15T03:50:28.587Z,83.07
2022-12-15T03:52:59.395Z,81.80
2022-12-15T03:55:31.156Z,84.18
2022-12-15T03:57:59.400Z,74.40
2022-12-15T04:00:27.172Z,75.03
2022-12-15T04:02:54.763Z,76.38
2022-12-15T04:05:29.165Z,87.30
2022-12-15T04:07:58.863Z,78.15
2022-12-15T04:10:34.027Z,77.88
2022-12-15T04:13:08.984Z,78.47
2022-12-15T04:15:38.854Z,72.47
2022-12-15T04:18:12.257Z,72.68
2022-12-15T04:20:40.745Z,73.47
2022-12-15T04:23:08.313Z,72.95
2022-12-15T04:25:55.518Z,72.88
2022-12-15T04:28:41.402Z,76.22
2022-12-15T04:31:41.604Z,78.03
2022-12-15T04:34:38.363Z,74.65
2022-12-15T04:40:12.900Z,67.75
2022-12-15T04:43:05.661Z,66.55
2022-12-15T04:45:51.621Z,75.30
2022-12-15T04:48:37.032Z,66.55
2022-12-15T04:51:23.974Z,77.20
2022-12-15T04:54:09.881Z,74.35
2022-12-15T04:56:55.206Z,77.07
2022-12-15T04:59:40.783Z,69.03
2022-12-15T05:02:26.222Z,73.63
2022-12-15T05:05:12.175Z,70.43
2022-12-15T05:07:57.496Z,72.10
2022-12-15T05:10:43.114Z,70.55
2022-12-15T05:13:28.660Z,71.65
2022-12-15T05:16:14.530Z,78.60
2022-12-15T05:18:59.847Z,80.10
2022-12-15T05:21:45.639Z,65.57
2022-12-15T05:24:30.945Z,82.27
2022-12-15T05:27:16.407Z,75.55
2022-12-15T05:30:01.753Z,72.63
2022-12-15T05:32:33.247Z,75.72
2022-12-15T05:35:01.300Z,60.03
2022-12-15T05:37:28.321Z,92.90
2022-12-15T05:39:55.228Z,76.15
2022-12-15T05:42:22.368Z,84.30
2022-12-15T05:44:49.336Z,73.82
2022-12-15T05:47:16.963Z,71.85
2022-12-15T05:49:44.014Z,78.97
2022-12-15T05:52:11.031Z,87.07
2022-12-15T05:54:38.056Z,91.40
2022-12-15T05:57:04.946Z,65.43
2022-12-15T05:59:32.355Z,84.43
2022-12-15T06:01:59.370Z,146.00
2022-12-15T06:04:26.757Z,119.28
2022-12-15T06:06:53.811Z,116.07
2022-12-15T06:09:20.825Z,81.85
2022-12-15T06:11:48.052Z,100.18
2022-12-15T06:14:15.203Z,67.63
2022-12-15T06:16:50.721Z,89.10
2022-12-15T06:19:19.140Z,71.05
2022-12-15T06:21:46.303Z,73.68
2022-12-15T06:24:13.218Z,74.65
2022-12-15T06:26:41.013Z,75.88
2022-12-15T06:29:12.503Z,71.93
2022-12-15T06:31:41.162Z,78.07
2022-12-15T06:34:12.338Z,64.63
2022-12-15T06:36:39.437Z,67.80
2022-12-15T06:39:11.367Z,72.57
2022-12-15T06:41:38.861Z,66.88
2022-12-15T06:44:06.319Z,69.00
2022-12-15T06:46:35.308Z,74.70
2022-12-15T06:49:02.578Z,67.63
2022-12-15T06:51:29.839Z,66.63
2022-12-15T06:53:57.148Z,66.72
2022-12-15T06:56:34.474Z,66.75
2022-12-15T06:59:04.317Z,70.13
2022-12-15T07:01:32.512Z,72.57
2022-12-15T07:04:01.474Z,68.55
2022-12-15T07:06:36.729Z,66.20
2022-12-15T07:09:08.284Z,74.53
2022-12-15T07:11:35.683Z,72.07
2022-12-15T07:14:03.239Z,71.05
2022-12-15T07:16:31.264Z,73.55
2022-12-15T07:18:58.536Z,67.93
2022-12-15T07:21:25.494Z,65.10
2022-12-15T07:23:55.298Z,62.67
2022-12-15T07:26:24.122Z,61.85
2022-12-15T07:28:51.412Z,68.47
2022-12-15T07:31:18.454Z,66.68
2022-12-15T07:33:47.558Z,64.55
2022-12-15T07:36:14.657Z,65.10
2022-12-15T07:38:41.613Z,67.10
2022-12-15T07:41:10.383Z,66.70
2022-12-15T07:43:38.463Z,65.28
2022-12-15T07:46:06.334Z,64.97
2022-12-15T07:48:33.837Z,65.82
2022-12-15T07:51:10.865Z,63.92
2022-12-15T07:53:40.178Z,65.05
2022-12-15T07:56:09.593Z,67.13
2022-12-15T07:58:37.930Z,65.57
2022-12-15T08:01:08.318Z,67.35
2022-12-15T08:03:37.099Z,59.78
2022-12-15T08:06:11.210Z,61.15
2022-12-15T08:08:39.624Z,56.63
2022-12-15T08:11:11.893Z,64.85
2022-12-15T08:16:28.064Z,61.58
2022-12-15T08:18:57.092Z,67.72
2022-12-15T08:21:24.770Z,64.80
2022-12-15T08:23:51.749Z,62.13
2022-12-15T08:26:23.649Z,66.32
2022-12-15T08:28:54.222Z,61.75
2022-12-15T08:31:23.611Z,63.63
2022-12-15T08:33:51.115Z,66.55
2022-12-15T08:36:20.383Z,55.38
2022-12-15T08:38:48.090Z,63.50
2022-12-15T08:41:19.987Z,59.38
2022-12-15T08:43:51.707Z,68.70
2022-12-15T08:46:22.483Z,72.53
2022-12-15T08:48:50.353Z,66.57
2022-12-15T08:51:17.720Z,54.92
2022-12-15T08:53:45.967Z,63.20
2022-12-15T08:56:19.537Z,58.45
2022-12-15T08:58:48.086Z,58.72
2022-12-15T09:01:23.359Z,58.40
2022-12-15T09:06:33.692Z,54.10
2022-12-15T09:09:07.855Z,51.97
2022-12-15T09:11:35.493Z,50.35
2022-12-15T09:14:03.581Z,53.33
2022-12-15T09:16:30.784Z,53.88
2022-12-15T09:18:59.932Z,57.75
2022-12-15T09:21:30.250Z,61.70
2022-12-15T09:24:03.276Z,47.15
2022-12-15T09:26:32.909Z,49.97
2022-12-15T09:29:01.932Z,75.18
2022-12-15T09:31:32.762Z,48.72
2022-12-15T09:34:01.242Z,47.60
2022-12-15T09:36:30.397Z,56.10
2022-12-15T09:38:57.616Z,49.05
2022-12-15T09:41:31.305Z,48.90
2022-12-15T09:44:07.943Z,43.90
2022-12-15T09:46:56.640Z,43.60
2022-12-15T09:49:47.856Z,48.00
2022-12-15T09:52:20.559Z,44.00
2022-12-15T09:54:47.831Z,50.20
2022-12-15T09:57:55.964Z,47.92
2022-12-15T10:00:38.026Z,45.58
2022-12-15T10:03:30.622Z,45.70
2022-12-15T10:06:22.034Z,39.47
2022-12-15T10:09:01.967Z,47.60
2022-12-15T10:11:51.031Z,41.80
2022-12-15T10:15:06.546Z,45.53
2022-12-15T10:17:56.795Z,44.55
2022-12-15T10:20:28.683Z,42.90
2022-12-15T10:23:02.902Z,46.92
2022-12-15T10:25:33.497Z,43.20
2022-12-15T10:28:34.401Z,45.85
2022-12-15T10:31:15.578Z,48.38
2022-12-15T10:33:47.153Z,46.63
2022-12-15T10:36:17.372Z,57.08
2022-12-15T10:38:50.392Z,43.50
2022-12-15T10:41:21.195Z,43.00
2022-12-15T10:43:53.365Z,44.30
2022-12-15T10:46:27.830Z,42.22
2022-12-15T10:49:23.553Z,42.15
2022-12-15T10:52:00.170Z,42.63
2022-12-15T10:54:45.245Z,42.25
2022-12-15T10:57:19.668Z,43.08
2022-12-15T10:59:46.921Z,39.70
2022-12-15T11:02:24.087Z,44.85
2022-12-15T11:05:01.441Z,42.45
2022-12-15T11:07:52.300Z,41.92
2022-12-15T11:10:51.937Z,43.47
2022-12-15T11:13:22.918Z,42.38
2022-12-15T11:15:56.460Z,41.20
2022-12-15T11:18:45.289Z,41.50
2022-12-15T11:21:25.316Z,43.55
2022-12-15T11:24:20.151Z,42.40
2022-12-15T11:27:12.151Z,41.47
2022-12-15T11:30:08.442Z,44.85
2022-12-15T11:32:38.840Z,38.25
2022-12-15T11:35:14.388Z,42.90
2022-12-15T11:37:42.449Z,39.58
2022-12-15T11:40:38.823Z,39.00
2022-12-15T11:43:43.522Z,38.33
2022-12-15T11:46:20.834Z,37.13
2022-12-15T11:49:25.304Z,37.72
2022-12-15T11:52:34.987Z,36.55
2022-12-15T11:55:41.882Z,37.35
2022-12-15T11:58:39.410Z,34.70
2022-12-15T12:01:34.098Z,36.17
2022-12-15T12:04:46.766Z,35.90
2022-12-15T12:07:41.947Z,36.05
2022-12-15T12:10:36.153Z,37.15
2022-12-15T12:13:44.929Z,35.88
2022-12-15T12:16:34.376Z,38.60
2022-12-15T12:19:16.392Z,38.25
2022-12-15T12:21:51.321Z,35.40
2022-12-15T12:24:28.706Z,38.33
2022-12-15T12:27:07.665Z,34.60
2022-12-15T12:29:53.432Z,35.30
2022-12-15T12:32:50.478Z,41.13
2022-12-15T12:35:33.572Z,37.75
2022-12-15T12:38:04.849Z,36.08
2022-12-15T12:40:40.789Z,40.35
2022-12-15T12:43:14.011Z,38.88
2022-12-15T12:45:52.078Z,36.53
2022-12-15T12:48:37.807Z,35.05
2022-12-15T12:51:34.746Z,38.28
2022-12-15T12:54:02.633Z,35.67
2022-12-15T12:56:42.527Z,33.30
2022-12-15T12:59:31.556Z,39.10
2022-12-15T13:02:20.593Z,37.15
2022-12-15T13:05:05.127Z,40.80
2022-12-15T13:07:41.058Z,35.25
2022-12-15T13:10:08.093Z,35.60
2022-12-15T13:13:00.589Z,37.92
2022-12-15T13:15:27.583Z,36.80
2022-12-15T13:18:25.177Z,38.47
2022-12-15T13:20:57.412Z,38.28
2022-12-15T13:23:26.012Z,37.67
2022-12-15T13:25:55.997Z,34.97
2022-12-15T13:28:44.297Z,42.17
2022-12-15T13:31:18.911Z,36.33
2022-12-15T13:34:01.447Z,43.67
2022-12-15T13:36:40.064Z,37.08
2022-12-15T13:39:13.161Z,33.80
2022-12-15T13:42:23.639Z,38.35
2022-12-15T13:44:45.317Z,34.38
2022-12-15T13:47:19.339Z,36.50
2022-12-15T13:50:02.284Z,42.60
2022-12-15T13:55:39.055Z,32.63
2022-12-15T13:58:17.808Z,36.45
2022-12-15T14:00:54.355Z,35.75
2022-12-15T14:03:21.925Z,37.15
2022-12-15T14:05:55.414Z,41.10
2022-12-15T14:08:26.035Z,36.28
2022-12-15T14:10:56.414Z,36.35
2022-12-15T14:13:26.717Z,32.42
2022-12-15T14:15:56.263Z,37.17
2022-12-15T14:18:28.272Z,35.90
2022-12-15T14:20:55.390Z,39.28
2022-12-15T14:23:26.897Z,37.30
2022-12-15T14:26:04.933Z,37.47
2022-12-15T14:28:36.314Z,33.58
2022-12-15T14:31:07.754Z,36.40
2022-12-15T14:33:40.239Z,36.85
2022-12-15T14:36:11.767Z,34.75
2022-12-15T14:38:51.484Z,39.42
2022-12-15T14:41:28.584Z,35.97
2022-12-15T14:44:36.960Z,36.38
2022-12-15T14:47:07.335Z,32.40
2022-12-15T14:49:43.956Z,42.53
2022-12-15T14:52:42.082Z,40.77
2022-12-15T14:55:37.278Z,35.42
2022-12-15T14:58:32.404Z,41.83
2022-12-15T15:01:02.415Z,39.10
2022-12-15T15:03:09.751Z,38.03
2022-12-15T15:03:39.645Z,42.10
2022-12-15T15:06:12.537Z,38.85
2022-12-15T15:08:53.396Z,45.00
2022-12-15T15:11:29.611Z,42.53
2022-12-15T15:14:01.262Z,44.70
2022-12-15T15:16:28.504Z,38.75
2022-12-15T15:18:57.264Z,41.40
2022-12-15T15:21:27.423Z,48.03
2022-12-15T15:24:23.671Z,47.55
2022-12-15T15:26:52.155Z,42.80
2022-12-15T15:29:41.139Z,50.20
2022-12-15T15:32:25.295Z,39.63
2022-12-15T15:34:52.564Z,47.58
2022-12-15T15:37:25.471Z,43.38
2022-12-15T15:39:54.531Z,43.50
2022-12-15T15:42:25.468Z,52.03
2022-12-15T15:44:57.688Z,44.35
2022-12-15T15:47:26.283Z,45.30
2022-12-15T15:49:55.797Z,49.33
2022-12-15T15:52:23.323Z,58.85
2022-12-15T15:54:51.761Z,51.22
2022-12-15T15:57:19.493Z,46.92
2022-12-15T15:59:47.027Z,45.60
2022-12-15T16:02:15.235Z,54.20
2022-12-15T16:04:43.897Z,46.00
2022-12-15T16:07:24.825Z,58.55
2022-12-15T16:09:53.499Z,50.15
2022-12-15T16:12:52.817Z,49.63
2022-12-15T16:15:29.580Z,49.53
2022-12-15T16:17:56.533Z,42.90
2022-12-15T16:20:27.472Z,48.83
2022-12-15T16:23:00.986Z,49.72
2022-12-15T16:25:41.441Z,48.95
2022-12-15T16:28:21.356Z,51.13
2022-12-15T16:30:48.994Z,48.35
2022-12-15T16:33:16.461Z,51.70
2022-12-15T16:35:45.159Z,50.80
2022-12-15T16:38:29.126Z,52.22
2022-12-15T16:40:58.898Z,51.80
2022-12-15T16:43:32.879Z,49.97
2022-12-15T16:46:03.604Z,58.28
2022-12-15T16:48:37.013Z,53.45
2022-12-15T16:51:08.852Z,53.33
2022-12-15T16:53:39.511Z,51.35
2022-12-15T16:56:08.640Z,47.70
2022-12-15T16:58:36.354Z,54.50
2022-12-15T17:01:03.923Z,57.03
2022-12-15T17:03:31.328Z,52.22
2022-12-15T17:06:06.658Z,51.53
2022-12-15T17:08:41.658Z,58.20
2022-12-15T17:11:21.902Z,59.85
2022-12-15T17:13:54.464Z,50.95
2022-12-15T17:16:24.773Z,51.47
2022-12-15T17:18:52.293Z,56.92
2022-12-15T17:21:28.285Z,52.00
2022-12-15T17:24:00.107Z,53.95
2022-12-15T17:26:31.086Z,55.38
2022-12-15T17:29:14.811Z,56.40
2022-12-15T17:31:41.817Z,66.88
2022-12-15T17:34:33.526Z,52.72
2022-12-15T17:37:06.461Z,49.10
2022-12-15T17:39:35.267Z,55.63
2022-12-15T17:42:03.028Z,52.40
2022-12-15T17:44:36.940Z,60.05
2022-12-15T17:47:07.967Z,56.70
2022-12-15T17:49:37.546Z,53.45
2022-12-15T17:52:24.959Z,54.08
2022-12-15T17:57:19.177Z,60.25
2022-12-15T17:59:46.280Z,55.08
2022-12-15T18:02:14.833Z,53.80
2022-12-15T18:04:43.010Z,54.83
2022-12-15T18:07:20.900Z,55.95
2022-12-15T18:09:49.894Z,53.47
2022-12-15T18:12:27.645Z,57.42
2022-12-15T18:14:55.960Z,62.08
2022-12-15T18:17:23.667Z,58.85
2022-12-15T18:19:50.753Z,59.20
2022-12-15T18:22:23.906Z,63.83
2022-12-15T18:24:53.689Z,54.75
2022-12-15T18:27:27.275Z,56.50
2022-12-15T18:29:55.019Z,57.75
2022-12-15T18:32:26.461Z,65.22
2022-12-15T18:34:54.568Z,54.90
2022-12-15T18:37:24.947Z,64.07
2022-12-15T18:39:52.581Z,60.05
2022-12-15T18:42:21.601Z,60.90
2022-12-15T18:44:53.628Z,56.38
2022-12-15T18:47:23.835Z,57.63
2022-12-15T18:49:50.984Z,53.60
2022-12-15T18:52:23.764Z,53.22
2022-12-15T18:54:53.205Z,57.13
2022-12-15T18:57:29.947Z,61.40
2022-12-15T19:00:17.413Z,54.25
2022-12-15T19:02:44.643Z,61.15
2022-12-15T19:05:27.657Z,53.38
2022-12-15T19:08:20.131Z,59.88
2022-12-15T19:11:31.111Z,55.97
2022-12-15T19:14:01.290Z,53.50
2022-12-15T19:16:49.408Z,65.57
2022-12-15T19:19:34.841Z,54.38
2022-12-15T19:22:21.063Z,60.85
2022-12-15T19:24:56.717Z,61.55
2022-12-15T19:27:26.682Z,59.10
2022-12-15T19:29:55.078Z,66.38
2022-12-15T19:32:23.140Z,64.25
2022-12-15T19:34:50.515Z,61.05
2022-12-15T19:37:26.374Z,60.35
2022-12-15T19:39:56.374Z,56.25
2022-12-15T19:42:35.770Z,62.17
2022-12-15T19:45:22.278Z,58.67
2022-12-15T19:47:49.952Z,59.92
2022-12-15T19:50:23.787Z,64.75
2022-12-15T19:52:55.106Z,54.95
2022-12-15T19:55:29.931Z,58.25
2022-12-15T19:57:56.992Z,62.90
2022-12-15T20:00:27.719Z,61.83
2022-12-15T20:02:55.905Z,62.75
2022-12-15T20:05:24.895Z,59.75
2022-12-15T20:07:54.799Z,58.30
2022-12-15T20:10:31.721Z,63.47
2022-12-15T20:13:01.044Z,67.55
2022-12-15T20:15:28.444Z,71.00
2022-12-15T20:17:58.212Z,73.75
2022-12-15T20:20:27.976Z,74.35
2022-12-15T20:22:59.722Z,71.57
2022-12-15T20:25:31.084Z,80.38
2022-12-15T20:28:00.526Z,81.93
2022-12-15T20:30:32.675Z,88.55
2022-12-15T20:33:03.083Z,98.50
2022-12-15T20:35:33.327Z,91.22
2022-12-15T20:38:04.323Z,99.60
2022-12-15T20:40:32.124Z,89.78
2022-12-15T20:42:59.229Z,85.93
2022-12-15T20:45:27.939Z,96.00
2022-12-15T20:47:55.975Z,86.80
2022-12-15T20:50:24.708Z,87.78
2022-12-15T20:52:52.672Z,86.88
2022-12-15T20:55:22.383Z,90.88
2022-12-15T20:57:49.531Z,84.03
2022-12-15T21:00:20.772Z,85.40
2022-12-15T21:02:49.032Z,88.35
2022-12-15T21:05:23.146Z,97.30
2022-12-15T21:07:50.827Z,94.68
2022-12-15T21:10:20.276Z,90.13
2022-12-15T21:12:49.222Z,104.78
2022-12-15T21:15:20.514Z,90.90
2022-12-15T21:18:03.860Z,105.13
2022-12-15T21:20:41.707Z,101.85
2022-12-15T21:23:28.668Z,106.78
2022-12-15T21:25:58.702Z,99.28
2022-12-15T21:28:25.789Z,107.85
2022-12-15T21:30:53.348Z,109.25
2022-12-15T21:33:20.911Z,105.50
2022-12-15T21:35:48.532Z,110.55
2022-12-15T21:38:29.295Z,116.78
2022-12-15T21:41:03.079Z,109.22
2022-12-15T21:43:34.119Z,119.57
2022-12-15T21:46:04.419Z,111.40
2022-12-15T21:48:50.096Z,112.18
2022-12-15T21:51:17.880Z,99.90
2022-12-15T21:53:46.133Z,104.57
2022-12-15T21:56:21.579Z,96.60
2022-12-15T21:58:52.777Z,86.00
2022-12-15T22:01:28.813Z,95.03
2022-12-15T22:03:58.146Z,84.18
2022-12-15T22:06:28.840Z,88.28
2022-12-15T22:09:00.614Z,82.68
2022-12-15T22:11:29.950Z,89.88
2022-12-15T22:14:03.301Z,77.45
2022-12-15T22:16:30.441Z,75.72
2022-12-15T22:18:58.699Z,70.68
2022-12-15T22:21:27.346Z,75.82
2022-12-15T22:23:54.303Z,76.75
2022-12-15T22:26:29.581Z,72.65
2022-12-15T22:29:00.596Z,70.10
2022-12-15T22:31:28.534Z,71.43
2022-12-15T22:33:55.644Z,69.85
2022-12-15T22:36:22.612Z,73.35
2022-12-15T22:38:49.514Z,65.35
2022-12-15T22:41:24.354Z,75.93
2022-12-15T22:43:56.306Z,73.15
2022-12-15T22:46:25.085Z,70.10
2022-12-15T22:48:54.794Z,63.00
2022-12-15T22:51:21.990Z,63.65
2022-12-15T22:53:48.925Z,60.50
2022-12-15T22:56:27.175Z,68.55
2022-12-15T22:59:01.500Z,72.47
2022-12-15T23:01:29.477Z,64.47
2022-12-15T23:03:56.614Z,75.15
2022-12-15T23:06:23.885Z,69.93
2022-12-15T23:08:55.903Z,65.60
2022-12-15T23:11:39.614Z,69.45
2022-12-15T23:14:12.043Z,64.97
2022-12-15T23:16:39.586Z,66.65
2022-12-15T23:19:08.086Z,70.30
2022-12-15T23:21:36.956Z,65.85
2022-12-15T23:24:03.969Z,66.05
2022-12-15T23:26:30.958Z,60.78
2022-12-15T23:28:57.917Z,68.63
2022-12-15T23:31:25.200Z,69.65
2022-12-15T23:33:52.385Z,55.03
2022-12-15T23:36:19.867Z,65.20
2022-12-15T23:38:46.903Z,66.57
2022-12-15T23:41:18.560Z,57.00
2022-12-15T23:43:45.690Z,61.33
2022-12-15T23:46:12.987Z,63.58
2022-12-15T23:48:43.292Z,63.30
2022-12-15T23:51:19.159Z,64.22
2022-12-15T23:56:17.639Z,54.60
2022-12-15T23:58:47.610Z,55.40
